map of ATF home
ATF - Airport
Location
City:  Ambato, Tungurahua, Ecuador
Name:Chachoan
ICAO:SEAM
IATA:ATF

Details
Type:Airport (Aerodrome, Airfield)
Latitude:112'43"S (-1.212066)
Longitude:7834'29"W (-78.574635)
Datum:WGS 1984
Elevation:8502 ft (2591 m)
Variation:3.39W (WMM2015 magnetic declination)
-0.16 annual change
Runways:1
Longest:6316 × 82 ft (1925 × 25 m), paved

Time
Time Zone:UTC-5
Local Time:

Weather
METAR:SEAM 121800Z 12004KT 9999 BKN030 BKN100 18/12 Q1029

Related Locations
Nearby:
Farthest:DUM: 12450 mi / 20036 km
Dumai [Pinang Kampai Airport], RI, ID

Find:

   beyond  
but within

Other Information
Maps:
NOTAMs:
Links:
Sources:

  
  • flag of Ecuador
  • flag of Tungurahua
  

Sectional Chart

Flight Planning
at skyvector.com

Satellite Image

Google Maps Satellite view

 

Copyright © 2004-2018 Karl L. Swartz. All rights reserved.
The Great Circle Mapper name and logo are trademarks of the Great Circle Mapper.
All other trademarks mentioned herein belong to their respective owners.
Please see credits for attibutions and further copyright information.

  Follow gcmap on Facebook Follow gcmap on Twitter Follow gcmap on Google+ GCmap on LinkedIn

hCard Microformat

Geo Microformat